sensor_id;sensor_type;location;lat;lon;timestamp;P1;durP1;ratioP1;P2;durP2;ratioP2
15669;SDS011;18524;45.190;5.732;2023-11-22T00:04:06;2.83;;;2.53;;
15669;SDS011;18524;45.190;5.732;2023-11-22T00:08:56;2.20;;;2.00;;
15669;SDS011;18524;45.190;5.732;2023-11-22T00:13:46;2.37;;;2.17;;
15669;SDS011;18524;45.190;5.732;2023-11-22T00:18:39;2.67;;;2.47;;
15669;SDS011;18524;45.190;5.732;2023-11-22T00:23:30;2.20;;;2.10;;
15669;SDS011;18524;45.190;5.732;2023-11-22T00:28:21;4.33;;;2.67;;
15669;SDS011;18524;45.190;5.732;2023-11-22T00:33:12;2.83;;;2.53;;
15669;SDS011;18524;45.190;5.732;2023-11-22T00:38:04;2.67;;;2.30;;
15669;SDS011;18524;45.190;5.732;2023-11-22T00:42:54;2.80;;;2.30;;
15669;SDS011;18524;45.190;5.732;2023-11-22T00:47:44;2.10;;;2.00;;
15669;SDS011;18524;45.190;5.732;2023-11-22T00:52:35;3.20;;;2.00;;
15669;SDS011;18524;45.190;5.732;2023-11-22T00:57:25;2.30;;;2.10;;
15669;SDS011;18524;45.190;5.732;2023-11-22T01:02:17;2.60;;;2.10;;
15669;SDS011;18524;45.190;5.732;2023-11-22T01:07:07;2.20;;;2.00;;
15669;SDS011;18524;45.190;5.732;2023-11-22T01:11:58;3.83;;;3.47;;
15669;SDS011;18524;45.190;5.732;2023-11-22T01:16:49;3.40;;;3.10;;
15669;SDS011;18524;45.190;5.732;2023-11-22T01:21:39;2.60;;;2.40;;
15669;SDS011;18524;45.190;5.732;2023-11-22T01:26:29;2.53;;;2.30;;
15669;SDS011;18524;45.190;5.732;2023-11-22T01:31:20;1.73;;;1.50;;
15669;SDS011;18524;45.190;5.732;2023-11-22T01:36:12;2.47;;;2.10;;
15669;SDS011;18524;45.190;5.732;2023-11-22T01:41:02;2.03;;;1.83;;
15669;SDS011;18524;45.190;5.732;2023-11-22T01:45:54;2.40;;;2.20;;
15669;SDS011;18524;45.190;5.732;2023-11-22T01:50:44;2.90;;;2.00;;
15669;SDS011;18524;45.190;5.732;2023-11-22T01:55:35;2.80;;;2.50;;
15669;SDS011;18524;45.190;5.732;2023-11-22T02:00:25;3.30;;;2.97;;
15669;SDS011;18524;45.190;5.732;2023-11-22T02:05:19;2.40;;;2.20;;
15669;SDS011;18524;45.190;5.732;2023-11-22T02:10:09;4.13;;;2.60;;
15669;SDS011;18524;45.190;5.732;2023-11-22T02:15:00;2.63;;;2.43;;
15669;SDS011;18524;45.190;5.732;2023-11-22T02:19:50;2.73;;;2.53;;
15669;SDS011;18524;45.190;5.732;2023-11-22T02:24:40;3.20;;;2.90;;
15669;SDS011;18524;45.190;5.732;2023-11-22T02:29:31;2.70;;;2.50;;
15669;SDS011;18524;45.190;5.732;2023-11-22T02:34:21;3.10;;;2.80;;
15669;SDS011;18524;45.190;5.732;2023-11-22T02:39:11;3.43;;;3.13;;
15669;SDS011;18524;45.190;5.732;2023-11-22T02:44:04;3.20;;;2.90;;
15669;SDS011;18524;45.190;5.732;2023-11-22T02:48:56;3.17;;;2.90;;
15669;SDS011;18524;45.190;5.732;2023-11-22T02:53:47;2.93;;;2.53;;
15669;SDS011;18524;45.190;5.732;2023-11-22T02:58:38;3.00;;;2.70;;
15669;SDS011;18524;45.190;5.732;2023-11-22T03:03:28;2.90;;;2.70;;
15669;SDS011;18524;45.190;5.732;2023-11-22T03:08:19;3.20;;;2.90;;
15669;SDS011;18524;45.190;5.732;2023-11-22T03:13:09;3.77;;;3.47;;
15669;SDS011;18524;45.190;5.732;2023-11-22T03:17:59;3.40;;;3.10;;
15669;SDS011;18524;45.190;5.732;2023-11-22T03:22:51;3.90;;;3.20;;
15669;SDS011;18524;45.190;5.732;2023-11-22T03:27:41;3.10;;;2.90;;
15669;SDS011;18524;45.190;5.732;2023-11-22T03:32:32;3.37;;;3.07;;
15669;SDS011;18524;45.190;5.732;2023-11-22T03:37:27;3.53;;;3.23;;
15669;SDS011;18524;45.190;5.732;2023-11-22T03:42:18;3.47;;;3.17;;
15669;SDS011;18524;45.190;5.732;2023-11-22T03:47:09;3.97;;;2.67;;
15669;SDS011;18524;45.190;5.732;2023-11-22T03:52:01;3.77;;;3.43;;
15669;SDS011;18524;45.190;5.732;2023-11-22T03:56:52;2.80;;;2.60;;
15669;SDS011;18524;45.190;5.732;2023-11-22T04:01:42;3.80;;;3.40;;
15669;SDS011;18524;45.190;5.732;2023-11-22T04:06:32;4.17;;;3.63;;
15669;SDS011;18524;45.190;5.732;2023-11-22T04:11:23;3.73;;;3.30;;
15669;SDS011;18524;45.190;5.732;2023-11-22T04:16:13;4.17;;;3.30;;
15669;SDS011;18524;45.190;5.732;2023-11-22T04:21:04;3.70;;;3.40;;
15669;SDS011;18524;45.190;5.732;2023-11-22T04:25:55;3.60;;;3.30;;
15669;SDS011;18524;45.190;5.732;2023-11-22T04:30:45;4.03;;;3.63;;
15669;SDS011;18524;45.190;5.732;2023-11-22T04:35:35;4.00;;;3.33;;
15669;SDS011;18524;45.190;5.732;2023-11-22T04:40:28;3.20;;;2.90;;
15669;SDS011;18524;45.190;5.732;2023-11-22T04:45:19;3.93;;;3.53;;
15669;SDS011;18524;45.190;5.732;2023-11-22T04:50:09;3.83;;;3.43;;
15669;SDS011;18524;45.190;5.732;2023-11-22T04:55:00;6.50;;;3.87;;
15669;SDS011;18524;45.190;5.732;2023-11-22T04:59:51;3.80;;;3.23;;
15669;SDS011;18524;45.190;5.732;2023-11-22T05:04:41;5.13;;;3.50;;
15669;SDS011;18524;45.190;5.732;2023-11-22T05:09:32;3.67;;;3.00;;
15669;SDS011;18524;45.190;5.732;2023-11-22T05:14:22;2.83;;;2.60;;
15669;SDS011;18524;45.190;5.732;2023-11-22T05:19:14;3.20;;;2.90;;
15669;SDS011;18524;45.190;5.732;2023-11-22T05:24:04;2.50;;;2.30;;
15669;SDS011;18524;45.190;5.732;2023-11-22T05:28:55;4.60;;;3.40;;
15669;SDS011;18524;45.190;5.732;2023-11-22T05:33:45;3.70;;;3.40;;
15669;SDS011;18524;45.190;5.732;2023-11-22T05:38:35;3.53;;;3.23;;
15669;SDS011;18524;45.190;5.732;2023-11-22T05:43:27;4.10;;;3.70;;
15669;SDS011;18524;45.190;5.732;2023-11-22T05:48:17;3.73;;;3.03;;
15669;SDS011;18524;45.190;5.732;2023-11-22T05:53:09;3.30;;;2.97;;
15669;SDS011;18524;45.190;5.732;2023-11-22T05:58:01;4.87;;;2.80;;
15669;SDS011;18524;45.190;5.732;2023-11-22T06:02:51;4.13;;;3.60;;
15669;SDS011;18524;45.190;5.732;2023-11-22T06:07:41;3.90;;;3.40;;
15669;SDS011;18524;45.190;5.732;2023-11-22T06:12:32;3.60;;;3.30;;
15669;SDS011;18524;45.190;5.732;2023-11-22T06:17:22;5.13;;;3.40;;
15669;SDS011;18524;45.190;5.732;2023-11-22T06:22:13;3.50;;;3.20;;
15669;SDS011;18524;45.190;5.732;2023-11-22T06:27:03;3.60;;;3.30;;
15669;SDS011;18524;45.190;5.732;2023-11-22T06:31:53;3.70;;;3.30;;
15669;SDS011;18524;45.190;5.732;2023-11-22T06:36:44;3.73;;;3.00;;
15669;SDS011;18524;45.190;5.732;2023-11-22T06:41:34;2.90;;;2.60;;
15669;SDS011;18524;45.190;5.732;2023-11-22T06:46:25;5.87;;;3.43;;
15669;SDS011;18524;45.190;5.732;2023-11-22T06:51:15;3.07;;;2.80;;
15669;SDS011;18524;45.190;5.732;2023-11-22T06:56:06;3.47;;;2.90;;
15669;SDS011;18524;45.190;5.732;2023-11-22T07:00:56;1.90;;;1.80;;
15669;SDS011;18524;45.190;5.732;2023-11-22T07:05:46;2.70;;;2.50;;
15669;SDS011;18524;45.190;5.732;2023-11-22T07:10:37;3.20;;;2.97;;
15669;SDS011;18524;45.190;5.732;2023-11-22T07:15:28;4.43;;;2.77;;
15669;SDS011;18524;45.190;5.732;2023-11-22T07:20:18;4.37;;;3.23;;
15669;SDS011;18524;45.190;5.732;2023-11-22T07:25:09;3.20;;;2.90;;
15669;SDS011;18524;45.190;5.732;2023-11-22T07:30:08;3.87;;;3.50;;
15669;SDS011;18524;45.190;5.732;2023-11-22T07:34:59;3.73;;;3.40;;
15669;SDS011;18524;45.190;5.732;2023-11-22T07:39:53;3.27;;;2.97;;
15669;SDS011;18524;45.190;5.732;2023-11-22T07:44:44;3.13;;;2.87;;
15669;SDS011;18524;45.190;5.732;2023-11-22T07:49:34;3.13;;;2.10;;
15669;SDS011;18524;45.190;5.732;2023-11-22T07:54:28;2.90;;;2.07;;
15669;SDS011;18524;45.190;5.732;2023-11-22T07:59:20;3.60;;;3.20;;
15669;SDS011;18524;45.190;5.732;2023-11-22T08:04:10;3.53;;;3.10;;
15669;SDS011;18524;45.190;5.732;2023-11-22T08:09:01;3.67;;;2.77;;
15669;SDS011;18524;45.190;5.732;2023-11-22T08:13:51;3.57;;;3.00;;
15669;SDS011;18524;45.190;5.732;2023-11-22T08:18:44;2.70;;;2.50;;
15669;SDS011;18524;45.190;5.732;2023-11-22T08:23:35;2.40;;;2.20;;
15669;SDS011;18524;45.190;5.732;2023-11-22T08:28:25;2.50;;;2.30;;
15669;SDS011;18524;45.190;5.732;2023-11-22T08:33:16;2.33;;;2.13;;
15669;SDS011;18524;45.190;5.732;2023-11-22T08:38:06;3.20;;;2.57;;
15669;SDS011;18524;45.190;5.732;2023-11-22T08:42:59;3.00;;;2.50;;
15669;SDS011;18524;45.190;5.732;2023-11-22T08:47:49;3.23;;;2.90;;
15669;SDS011;18524;45.190;5.732;2023-11-22T08:52:41;2.30;;;2.10;;
15669;SDS011;18524;45.190;5.732;2023-11-22T08:57:31;2.23;;;1.90;;
15669;SDS011;18524;45.190;5.732;2023-11-22T09:02:22;3.00;;;2.20;;
15669;SDS011;18524;45.190;5.732;2023-11-22T09:07:12;1.93;;;1.73;;
15669;SDS011;18524;45.190;5.732;2023-11-22T09:12:04;4.03;;;2.60;;
15669;SDS011;18524;45.190;5.732;2023-11-22T09:17:02;3.07;;;2.03;;
15669;SDS011;18524;45.190;5.732;2023-11-22T09:21:55;3.63;;;2.80;;
15669;SDS011;18524;45.190;5.732;2023-11-22T09:26:45;3.20;;;2.00;;
15669;SDS011;18524;45.190;5.732;2023-11-22T09:31:35;2.13;;;1.90;;
15669;SDS011;18524;45.190;5.732;2023-11-22T09:36:26;2.03;;;1.70;;
15669;SDS011;18524;45.190;5.732;2023-11-22T09:41:17;2.27;;;1.50;;
15669;SDS011;18524;45.190;5.732;2023-11-22T09:46:08;1.60;;;1.50;;
15669;SDS011;18524;45.190;5.732;2023-11-22T09:56:03;2.70;;;1.97;;
15669;SDS011;18524;45.190;5.732;2023-11-22T10:00:56;3.03;;;2.70;;
15669;SDS011;18524;45.190;5.732;2023-11-22T10:05:46;4.17;;;2.50;;
15669;SDS011;18524;45.190;5.732;2023-11-22T10:10:37;3.20;;;2.30;;
15669;SDS011;18524;45.190;5.732;2023-11-22T10:15:30;2.47;;;2.07;;
15669;SDS011;18524;45.190;5.732;2023-11-22T10:20:24;4.10;;;1.70;;
15669;SDS011;18524;45.190;5.732;2023-11-22T10:25:17;3.03;;;1.80;;
15669;SDS011;18524;45.190;5.732;2023-11-22T10:30:08;2.73;;;1.80;;
15669;SDS011;18524;45.190;5.732;2023-11-22T10:34:59;2.30;;;1.70;;
15669;SDS011;18524;45.190;5.732;2023-11-22T10:39:50;1.67;;;1.57;;
15669;SDS011;18524;45.190;5.732;2023-11-22T10:44:41;2.17;;;1.83;;
15669;SDS011;18524;45.190;5.732;2023-11-22T10:49:32;2.70;;;2.00;;
15669;SDS011;18524;45.190;5.732;2023-11-22T10:54:23;4.43;;;2.80;;
15669;SDS011;18524;45.190;5.732;2023-11-22T10:59:14;5.30;;;2.70;;
15669;SDS011;18524;45.190;5.732;2023-11-22T11:04:08;3.30;;;2.40;;
15669;SDS011;18524;45.190;5.732;2023-11-22T11:09:02;2.20;;;1.40;;
15669;SDS011;18524;45.190;5.732;2023-11-22T11:13:59;2.67;;;1.87;;
15669;SDS011;18524;45.190;5.732;2023-11-22T11:18:51;3.00;;;1.90;;
15669;SDS011;18524;45.190;5.732;2023-11-22T11:23:41;2.47;;;2.00;;
15669;SDS011;18524;45.190;5.732;2023-11-22T11:28:44;3.40;;;2.57;;
15669;SDS011;18524;45.190;5.732;2023-11-22T11:38:43;3.30;;;2.20;;
15669;SDS011;18524;45.190;5.732;2023-11-22T11:43:43;2.27;;;1.27;;
15669;SDS011;18524;45.190;5.732;2023-11-22T11:48:43;1.50;;;1.30;;
15669;SDS011;18524;45.190;5.732;2023-11-22T11:53:41;2.40;;;2.20;;
15669;SDS011;18524;45.190;5.732;2023-11-22T11:58:31;3.57;;;2.00;;
15669;SDS011;18524;45.190;5.732;2023-11-22T12:03:22;2.10;;;1.50;;
15669;SDS011;18524;45.190;5.732;2023-11-22T12:08:13;1.80;;;1.30;;
15669;SDS011;18524;45.190;5.732;2023-11-22T12:13:07;1.70;;;1.30;;
15669;SDS011;18524;45.190;5.732;2023-11-22T12:17:58;1.80;;;1.37;;
15669;SDS011;18524;45.190;5.732;2023-11-22T12:22:49;1.70;;;1.27;;
15669;SDS011;18524;45.190;5.732;2023-11-22T12:27:43;2.57;;;2.10;;
15669;SDS011;18524;45.190;5.732;2023-11-22T12:32:38;1.90;;;1.00;;
15669;SDS011;18524;45.190;5.732;2023-11-22T12:37:29;2.43;;;1.73;;
15669;SDS011;18524;45.190;5.732;2023-11-22T12:42:20;1.20;;;1.00;;
15669;SDS011;18524;45.190;5.732;2023-11-22T12:47:10;1.20;;;0.90;;
15669;SDS011;18524;45.190;5.732;2023-11-22T12:52:01;1.80;;;1.60;;
15669;SDS011;18524;45.190;5.732;2023-11-22T12:56:52;2.00;;;1.70;;
15669;SDS011;18524;45.190;5.732;2023-11-22T13:01:53;3.50;;;1.70;;
15669;SDS011;18524;45.190;5.732;2023-11-22T13:06:44;5.03;;;2.77;;
15669;SDS011;18524;45.190;5.732;2023-11-22T13:11:34;1.27;;;0.90;;
15669;SDS011;18524;45.190;5.732;2023-11-22T13:16:25;2.07;;;1.10;;
15669;SDS011;18524;45.190;5.732;2023-11-22T13:21:15;1.30;;;1.07;;
15669;SDS011;18524;45.190;5.732;2023-11-22T13:26:05;1.40;;;1.00;;
15669;SDS011;18524;45.190;5.732;2023-11-22T13:30:59;2.00;;;0.90;;
15669;SDS011;18524;45.190;5.732;2023-11-22T13:35:50;1.47;;;0.90;;
15669;SDS011;18524;45.190;5.732;2023-11-22T13:40:41;1.20;;;0.80;;
15669;SDS011;18524;45.190;5.732;2023-11-22T13:45:35;1.07;;;0.90;;
15669;SDS011;18524;45.190;5.732;2023-11-22T13:50:28;1.10;;;0.80;;
15669;SDS011;18524;45.190;5.732;2023-11-22T13:55:18;1.40;;;0.60;;
15669;SDS011;18524;45.190;5.732;2023-11-22T14:00:13;0.67;;;0.67;;
15669;SDS011;18524;45.190;5.732;2023-11-22T14:05:08;1.10;;;0.90;;
15669;SDS011;18524;45.190;5.732;2023-11-22T14:09:58;1.10;;;0.77;;
15669;SDS011;18524;45.190;5.732;2023-11-22T14:14:49;1.73;;;1.20;;
15669;SDS011;18524;45.190;5.732;2023-11-22T14:19:39;2.23;;;1.30;;
15669;SDS011;18524;45.190;5.732;2023-11-22T14:24:30;2.03;;;1.60;;
15669;SDS011;18524;45.190;5.732;2023-11-22T14:29:20;1.90;;;1.43;;
15669;SDS011;18524;45.190;5.732;2023-11-22T14:34:10;2.00;;;1.80;;
15669;SDS011;18524;45.190;5.732;2023-11-22T14:39:02;1.93;;;1.50;;
15669;SDS011;18524;45.190;5.732;2023-11-22T14:43:52;2.10;;;1.90;;
15669;SDS011;18524;45.190;5.732;2023-11-22T14:48:43;2.03;;;1.70;;
15669;SDS011;18524;45.190;5.732;2023-11-22T14:53:33;2.00;;;1.80;;
15669;SDS011;18524;45.190;5.732;2023-11-22T14:58:25;2.10;;;1.90;;
15669;SDS011;18524;45.190;5.732;2023-11-22T15:03:15;2.40;;;2.20;;
15669;SDS011;18524;45.190;5.732;2023-11-22T15:08:06;2.47;;;2.27;;
15669;SDS011;18524;45.190;5.732;2023-11-22T15:12:57;2.87;;;2.20;;
15669;SDS011;18524;45.190;5.732;2023-11-22T15:17:48;3.63;;;2.37;;
15669;SDS011;18524;45.190;5.732;2023-11-22T15:22:38;2.43;;;2.20;;
15669;SDS011;18524;45.190;5.732;2023-11-22T15:27:28;2.73;;;2.13;;
15669;SDS011;18524;45.190;5.732;2023-11-22T15:32:19;3.37;;;2.00;;
15669;SDS011;18524;45.190;5.732;2023-11-22T15:37:09;3.33;;;2.33;;
15669;SDS011;18524;45.190;5.732;2023-11-22T15:42:01;4.33;;;2.70;;
15669;SDS011;18524;45.190;5.732;2023-11-22T15:46:51;2.40;;;2.20;;
15669;SDS011;18524;45.190;5.732;2023-11-22T15:51:41;2.97;;;2.07;;
15669;SDS011;18524;45.190;5.732;2023-11-22T15:56:32;2.33;;;2.13;;
15669;SDS011;18524;45.190;5.732;2023-11-22T16:01:22;2.23;;;2.03;;
15669;SDS011;18524;45.190;5.732;2023-11-22T16:06:12;3.23;;;2.20;;
15669;SDS011;18524;45.190;5.732;2023-11-22T16:11:03;3.27;;;2.23;;
15669;SDS011;18524;45.190;5.732;2023-11-22T16:15:53;2.47;;;2.27;;
15669;SDS011;18524;45.190;5.732;2023-11-22T16:20:47;2.53;;;2.33;;
15669;SDS011;18524;45.190;5.732;2023-11-22T16:25:37;2.93;;;2.30;;
15669;SDS011;18524;45.190;5.732;2023-11-22T16:30:29;2.77;;;2.30;;
15669;SDS011;18524;45.190;5.732;2023-11-22T16:35:19;2.50;;;2.30;;
15669;SDS011;18524;45.190;5.732;2023-11-22T16:40:09;4.27;;;2.60;;
15669;SDS011;18524;45.190;5.732;2023-11-22T16:45:00;3.73;;;2.73;;
15669;SDS011;18524;45.190;5.732;2023-11-22T16:49:51;3.00;;;2.70;;
15669;SDS011;18524;45.190;5.732;2023-11-22T16:54:45;3.37;;;2.67;;
15669;SDS011;18524;45.190;5.732;2023-11-22T16:59:36;2.80;;;2.60;;
15669;SDS011;18524;45.190;5.732;2023-11-22T17:04:26;3.17;;;2.87;;
15669;SDS011;18524;45.190;5.732;2023-11-22T17:09:16;3.47;;;2.83;;
15669;SDS011;18524;45.190;5.732;2023-11-22T17:14:08;4.07;;;3.20;;
15669;SDS011;18524;45.190;5.732;2023-11-22T17:18:58;3.87;;;3.37;;
15669;SDS011;18524;45.190;5.732;2023-11-22T17:23:48;4.60;;;3.60;;
15669;SDS011;18524;45.190;5.732;2023-11-22T17:28:38;3.50;;;3.20;;
15669;SDS011;18524;45.190;5.732;2023-11-22T17:33:29;3.73;;;2.70;;
15669;SDS011;18524;45.190;5.732;2023-11-22T17:38:20;3.20;;;2.90;;
15669;SDS011;18524;45.190;5.732;2023-11-22T17:43:11;3.50;;;2.93;;
15669;SDS011;18524;45.190;5.732;2023-11-22T17:48:01;3.47;;;2.47;;
15669;SDS011;18524;45.190;5.732;2023-11-22T17:52:51;3.40;;;2.80;;
15669;SDS011;18524;45.190;5.732;2023-11-22T17:57:42;3.40;;;3.10;;
15669;SDS011;18524;45.190;5.732;2023-11-22T18:02:33;3.60;;;3.30;;
15669;SDS011;18524;45.190;5.732;2023-11-22T18:07:23;3.60;;;3.30;;
15669;SDS011;18524;45.190;5.732;2023-11-22T18:12:13;3.63;;;3.00;;
15669;SDS011;18524;45.190;5.732;2023-11-22T18:17:05;3.80;;;3.40;;
15669;SDS011;18524;45.190;5.732;2023-11-22T18:21:55;4.10;;;3.30;;
15669;SDS011;18524;45.190;5.732;2023-11-22T18:26:46;4.27;;;3.20;;
15669;SDS011;18524;45.190;5.732;2023-11-22T18:31:36;4.80;;;3.50;;
15669;SDS011;18524;45.190;5.732;2023-11-22T18:36:26;3.90;;;3.50;;
15669;SDS011;18524;45.190;5.732;2023-11-22T18:41:17;5.33;;;3.53;;
15669;SDS011;18524;45.190;5.732;2023-11-22T18:46:08;4.97;;;3.53;;
15669;SDS011;18524;45.190;5.732;2023-11-22T18:50:59;4.23;;;3.80;;
15669;SDS011;18524;45.190;5.732;2023-11-22T18:55:49;4.43;;;3.80;;
15669;SDS011;18524;45.190;5.732;2023-11-22T19:00:40;4.37;;;3.97;;
15669;SDS011;18524;45.190;5.732;2023-11-22T19:05:30;4.33;;;3.90;;
15669;SDS011;18524;45.190;5.732;2023-11-22T19:10:20;4.70;;;4.17;;
15669;SDS011;18524;45.190;5.732;2023-11-22T19:15:11;5.20;;;4.30;;
15669;SDS011;18524;45.190;5.732;2023-11-22T19:20:01;4.83;;;3.90;;
15669;SDS011;18524;45.190;5.732;2023-11-22T19:24:53;5.00;;;4.20;;
15669;SDS011;18524;45.190;5.732;2023-11-22T19:29:43;6.13;;;4.47;;
15669;SDS011;18524;45.190;5.732;2023-11-22T19:34:34;5.43;;;4.33;;
15669;SDS011;18524;45.190;5.732;2023-11-22T19:39:25;4.67;;;4.00;;
15669;SDS011;18524;45.190;5.732;2023-11-22T19:44:16;4.87;;;3.77;;
15669;SDS011;18524;45.190;5.732;2023-11-22T19:49:09;4.17;;;3.73;;
15669;SDS011;18524;45.190;5.732;2023-11-22T19:54:02;4.83;;;4.43;;
15669;SDS011;18524;45.190;5.732;2023-11-22T19:58:52;4.50;;;4.10;;
15669;SDS011;18524;45.190;5.732;2023-11-22T20:03:43;5.13;;;4.10;;
15669;SDS011;18524;45.190;5.732;2023-11-22T20:08:33;5.17;;;3.83;;
15669;SDS011;18524;45.190;5.732;2023-11-22T20:13:23;4.50;;;4.10;;
15669;SDS011;18524;45.190;5.732;2023-11-22T20:18:14;5.10;;;4.60;;
15669;SDS011;18524;45.190;5.732;2023-11-22T20:23:04;6.33;;;4.93;;
15669;SDS011;18524;45.190;5.732;2023-11-22T20:27:56;6.07;;;4.20;;
15669;SDS011;18524;45.190;5.732;2023-11-22T20:32:46;5.47;;;4.40;;
15669;SDS011;18524;45.190;5.732;2023-11-22T20:37:37;4.50;;;4.10;;
15669;SDS011;18524;45.190;5.732;2023-11-22T20:42:28;5.53;;;4.47;;
15669;SDS011;18524;45.190;5.732;2023-11-22T20:47:19;4.53;;;4.00;;
15669;SDS011;18524;45.190;5.732;2023-11-22T20:52:09;4.77;;;4.27;;
15669;SDS011;18524;45.190;5.732;2023-11-22T20:56:59;5.37;;;4.50;;
15669;SDS011;18524;45.190;5.732;2023-11-22T21:01:50;5.30;;;4.13;;
15669;SDS011;18524;45.190;5.732;2023-11-22T21:06:41;4.60;;;4.17;;
15669;SDS011;18524;45.190;5.732;2023-11-22T21:11:32;5.07;;;4.57;;
15669;SDS011;18524;45.190;5.732;2023-11-22T21:16:23;5.00;;;4.50;;
15669;SDS011;18524;45.190;5.732;2023-11-22T21:21:13;4.90;;;4.33;;
15669;SDS011;18524;45.190;5.732;2023-11-22T21:26:04;5.67;;;4.60;;
15669;SDS011;18524;45.190;5.732;2023-11-22T21:30:54;4.87;;;4.13;;
15669;SDS011;18524;45.190;5.732;2023-11-22T21:35:45;4.83;;;4.23;;
15669;SDS011;18524;45.190;5.732;2023-11-22T21:40:35;5.43;;;4.40;;
15669;SDS011;18524;45.190;5.732;2023-11-22T21:45:28;5.10;;;4.60;;
15669;SDS011;18524;45.190;5.732;2023-11-22T21:50:19;4.77;;;4.23;;
15669;SDS011;18524;45.190;5.732;2023-11-22T21:55:09;5.77;;;4.57;;
15669;SDS011;18524;45.190;5.732;2023-11-22T22:00:01;5.53;;;4.70;;
15669;SDS011;18524;45.190;5.732;2023-11-22T22:04:54;5.00;;;4.50;;
15669;SDS011;18524;45.190;5.732;2023-11-22T22:09:45;5.03;;;4.40;;
15669;SDS011;18524;45.190;5.732;2023-11-22T22:14:35;5.20;;;4.70;;
15669;SDS011;18524;45.190;5.732;2023-11-22T22:19:25;6.03;;;4.57;;
15669;SDS011;18524;45.190;5.732;2023-11-22T22:24:16;5.30;;;4.80;;
15669;SDS011;18524;45.190;5.732;2023-11-22T22:29:06;5.23;;;4.73;;
15669;SDS011;18524;45.190;5.732;2023-11-22T22:33:57;5.30;;;4.80;;
15669;SDS011;18524;45.190;5.732;2023-11-22T22:38:47;5.30;;;4.70;;
15669;SDS011;18524;45.190;5.732;2023-11-22T22:43:37;6.53;;;5.10;;
15669;SDS011;18524;45.190;5.732;2023-11-22T22:48:28;6.30;;;5.13;;
15669;SDS011;18524;45.190;5.732;2023-11-22T22:53:18;5.07;;;4.57;;
15669;SDS011;18524;45.190;5.732;2023-11-22T22:58:08;5.30;;;4.80;;
15669;SDS011;18524;45.190;5.732;2023-11-22T23:02:59;5.23;;;4.60;;
15669;SDS011;18524;45.190;5.732;2023-11-22T23:07:49;5.73;;;5.03;;
15669;SDS011;18524;45.190;5.732;2023-11-22T23:12:40;5.17;;;4.67;;
15669;SDS011;18524;45.190;5.732;2023-11-22T23:17:30;5.20;;;4.67;;
15669;SDS011;18524;45.190;5.732;2023-11-22T23:22:20;5.23;;;4.53;;
15669;SDS011;18524;45.190;5.732;2023-11-22T23:27:11;5.50;;;5.00;;
15669;SDS011;18524;45.190;5.732;2023-11-22T23:32:02;5.43;;;4.70;;
15669;SDS011;18524;45.190;5.732;2023-11-22T23:36:52;4.83;;;4.33;;
15669;SDS011;18524;45.190;5.732;2023-11-22T23:41:43;5.20;;;4.70;;
15669;SDS011;18524;45.190;5.732;2023-11-22T23:46:34;5.50;;;4.23;;
15669;SDS011;18524;45.190;5.732;2023-11-22T23:51:25;5.60;;;4.17;;
15669;SDS011;18524;45.190;5.732;2023-11-22T23:56:16;5.50;;;4.60;;
